nws-alerts: Checking more than four warning/county codes can delay the loading of your pages. You should use a cron job to get the data.

Nearby METAR Reports

 

KFCI - Richmond/Chester, Virginia, USA
Distance from station: ESE 7mi, 12km
Updated: Fri, 14-Aug-2020 3:09am EDT
Overcast
Overcast
 Wind from N
Wind: N 5 mph , 7 km/h
Temperature: 73°F , 23°C
Dew Point: 73°F , 23°C
Humidity: 100%
Barometer: 29.96 inHg , 1014.6 hPa
Clouds: Overcast
Visibility: 10 miles , 16 km
Cloud details: Mostly cloudy 700 ft
Mostly cloudy 1700 ft
Overcast 2400 ft
2020/08/14 07:09 KFCI 140709Z AUTO 36004KT 10SM BKN007 BKN017 OVC024 23/23 A2996 RMK AO2
KPTB - Petersburg, Virginia, USA
Distance from station: SSE 19mi, 31km
Updated: Fri, 14-Aug-2020 3:15am EDT
Overcast
Overcast
 Wind from NNW
Wind: NNW 5 mph , 7 km/h
Temperature: 75°F , 24°C
Dew Point: 72°F , 22°C
Humidity: 89%
Barometer: 29.95 inHg , 1014.2 hPa
Clouds: Overcast
Visibility: 10 miles , 16 km
Cloud details: Mostly cloudy 700 ft
Overcast 1300 ft
2020/08/14 07:15 KPTB 140715Z AUTO 34004KT 10SM BKN007 OVC013 24/22 A2995 RMK AO2 T02360220
 
KRIC - Richmond, Virginia, USA
Distance from station: ENE 19mi, 31km
Updated: Fri, 14-Aug-2020 2:54am EDT
Overcast
Overcast
 Wind from N
Wind: N 8 mph , 13 km/h
Temperature: 75°F , 24°C
Dew Point: 73°F , 23°C
Humidity: 94%
Barometer: 29.95 inHg , 1014.2 hPa
Clouds: Overcast
Visibility: 10 miles , 16 km
Cloud details: Mostly cloudy 600 ft
Overcast 2700 ft
2020/08/14 06:54 KRIC 140654Z 36007KT 10SM BKN006 OVC027 24/23 A2995 RMK AO2 SLP144 T02390228
KOFP - Richmond/Hanover, Virginia, USA
Distance from station: NNE 22mi, 36km
Updated: Fri, 14-Aug-2020 3:01am EDT
Light rain, Mist, Overcast
Light rain, Mist, Overcast
 Wind from calm
Wind: Calm
Temperature: 73°F , 23°C
Dew Point: 72°F , 22°C
Humidity: 94%
Barometer: 29.97 inHg , 1014.9 hPa
Summary: Light rain, Mist
Clouds: Overcast
Visibility: 6 miles , 10 km
Cloud details: Mostly cloudy 600 ft
Mostly cloudy 1200 ft
Overcast 2500 ft
2020/08/14 07:01 KOFP 140701Z AUTO 00000KT 6SM -RA BR BKN006 BKN012 OVC025 23/22 A2997 RMK AO2 RAB0655 P0000 T02330222
 
KW96 - Quinton, Virginia, USA
Distance from station: E 28mi, 46km
Updated: Fri, 14-Aug-2020 3:15am EDT
Overcast
Overcast
 Wind from NNW
Wind: NNW 3 mph , 6 km/h
Temperature: 73°F , 23°C
Dew Point: 73°F , 23°C
Humidity: 100%
Barometer: 29.93 inHg , 1013.5 hPa
Clouds: Overcast
Visibility: 5 miles , 8 km
Cloud details: Partly cloudy 500 ft
Mostly cloudy 1500 ft
Overcast 3200 ft
2020/08/14 07:15 KW96 140715Z AUTO 33003KT 5SM SCT005 BKN015 OVC032 23/23 A2993 RMK AO1 P0001 T02340234
KBKT - Blackstone Army, Virginia, USA
Distance from station: SW 30mi, 48km
Updated: Thu, 13-Aug-2020 4:58am EDT
NOT Current
Mist, Overcast
Mist, Overcast
 Wind from NNE
Wind: NNE 5 mph , 7 km/h
Temperature: 72°F , 22°C
Dew Point: 72°F , 22°C
Humidity: 100%
Barometer: 30.04 inHg , 1017.3 hPa
Summary: Mist
Clouds: Overcast
Visibility: 5 miles , 8 km
Cloud details: Overcast 400 ft
2020/08/13 08:58 KBKT 130858Z AUTO 03004KT 5SM R04/4500FT BR OVC004 22/22 A3004 RMK AO2 LTG DSNT N-NE SLP171 T02220218 53003
 
KW81 - Crewe, Virginia, USA
Distance from station: SW 30mi, 49km
Updated: Fri, 14-Aug-2020 3:15am EDT
Overcast
Overcast
 Wind from NNW
Wind: NNW 3 mph , 6 km/h
Barometer: 29.97 inHg , 1014.9 hPa
Clouds: Overcast
Visibility: 10 miles , 16 km
Cloud details: Overcast 400 ft
2020/08/14 07:15 KW81 140715Z AUTO 34003KT 10SM OVC004 A2997 RMK AO1
K7W4 - Bumpass, Virginia, USA
Distance from station: N 38mi, 61km
Updated: Fri, 14-Aug-2020 3:15am EDT
Overcast
Overcast
 Wind from calm
Wind: Calm
Temperature: 73°F , 23°C
Dew Point: 72°F , 22°C
Humidity: 94%
Barometer: 29.97 inHg , 1014.9 hPa
Clouds: Overcast
Visibility: 10 miles , 16 km
Cloud details: Mostly cloudy 700 ft
Overcast 1000 ft
2020/08/14 07:15 K7W4 140715Z AUTO 00000KT 10SM BKN007 OVC010 23/22 A2997 RMK AO1 T02300222
 
KFVX - Farmville, Virginia, USA
Distance from station: W 43mi, 69km
Updated: Fri, 14-Aug-2020 3:15am EDT
Overcast
Overcast
 Wind from calm
Wind: Calm
Temperature: 73°F , 23°C
Dew Point: 72°F , 22°C
Humidity: 94%
Barometer: 29.97 inHg , 1014.9 hPa
Clouds: Overcast
Visibility: 10 miles , 16 km
Cloud details: Mostly cloudy 800 ft
Overcast 8000 ft
2020/08/14 07:15 KFVX 140715Z AUTO 00000KT 10SM BKN008 OVC080 23/22 A2997 RMK AO2 T02250218
KW31 - Kenbridge, Virginia, USA
Distance from station: SW 43mi, 70km
Updated: Fri, 14-Aug-2020 3:15am EDT
Overcast
Overcast
 Wind from NNW
Wind: NNW 3 mph , 6 km/h
Temperature: 73°F , 23°C
Dew Point: 73°F , 23°C
Humidity: 100%
Barometer: 29.97 inHg , 1014.9 hPa
Clouds: Overcast
Visibility: 4 miles , 6 km
Cloud details: Overcast 300 ft
2020/08/14 07:15 KW31 140715Z AUTO 34003KT 4SM OVC003 23/23 A2997 RMK AO1 T02250225
 
KLKU - Louisa, Virginia, USA
Distance from station: NNW 44mi, 72km
Updated: Fri, 14-Aug-2020 3:15am EDT
Mist, Overcast
Mist, Overcast
 Wind from N
Wind: N 5 mph , 7 km/h
Temperature: 72°F , 22°C
Dew Point: 72°F , 22°C
Humidity: 100%
Barometer: 30.03 inHg , 1016.9 hPa
Summary: Mist
Clouds: Overcast
Visibility: 7 miles , 11 km
Cloud details: Overcast 200 ft
2020/08/14 07:15 KLKU 140715Z AUTO 01004KT 7SM BR OVC002 22/22 A3003 RMK AO2 T02250224
KLVL - Lawrenceville, Virginia, USA
Distance from station: S 46mi, 75km
Updated: Fri, 14-Aug-2020 3:15am EDT
Overcast
Overcast
 Wind from NW
Wind: NW 5 mph , 7 km/h
Temperature: 73°F , 23°C
Dew Point: 73°F , 23°C
Humidity: 100%
Barometer: 29.95 inHg , 1014.2 hPa
Clouds: Overcast
Visibility: 10 miles , 16 km
Cloud details: Overcast 400 ft
2020/08/14 07:15 KLVL 140715Z AUTO 32004KT 10SM OVC004 23/23 A2995 RMK AO1 T02310226
 
KAKQ - Norfolk/Wakefld, Virginia, USA
Distance from station: SE 47mi, 75km
Updated: Fri, 14-Aug-2020 2:54am EDT
Overcast
Overcast
 Wind from calm
Wind: Calm
Temperature: 75°F , 24°C
Dew Point: 73°F , 23°C
Humidity: 94%
Barometer: 29.92 inHg , 1013.2 hPa
Clouds: Overcast
Visibility: 10 miles , 16 km
Cloud details: Mostly cloudy 500 ft
Overcast 1000 ft
2020/08/14 06:54 KAKQ 140654Z AUTO 00000KT 10SM BKN005 OVC010 24/23 A2992 RMK AO2 SLP129 T02440233
KFYJ - West Point, Virginia, USA
Distance from station: E 48mi, 78km
Updated: Fri, 14-Aug-2020 3:15am EDT
Overcast
Overcast
 Wind from calm
Wind: Calm
Temperature: 73°F , 23°C
Dew Point: 73°F , 23°C
Humidity: 100%
Barometer: 29.93 inHg , 1013.5 hPa
Clouds: Overcast
Visibility: 3 miles , 5 km
Cloud details: Partly cloudy 900 ft
Mostly cloudy 1300 ft
Overcast 2200 ft
2020/08/14 07:15 KFYJ 140715Z AUTO 00000KT 3SM SCT009 BKN013 OVC022 23/23 A2993 RMK AO1 P0007 T02330230
 
KXSA - Tappahannock, Virginia, USA
Distance from station: NE 51mi, 82km
Updated: Thu, 13-Aug-2020 9:15pm EDT
NOT Current

 Wind from calm
Wind: Calm
Temperature: 75°F , 24°C
Dew Point: 75°F , 24°C
Humidity: 100%
Barometer: 30.00 inHg , 1015.9 hPa
Visibility: 10 miles , 16 km
2020/08/14 01:15 KXSA 140115Z AUTO 00000KT 10SM 24/24 A3000 RMK AO2 LTG DSNT S T02360236
KEMV - Emporia, Virginia, USA
Distance from station: S 52mi, 84km
Updated: Fri, 14-Aug-2020 3:15am EDT
Overcast
Overcast
 Wind from WNW
Wind: WNW 6 mph , 9 km/h
Temperature: 73°F , 23°C
Dew Point: 73°F , 23°C
Humidity: 100%
Barometer: 29.95 inHg , 1014.2 hPa
Clouds: Overcast
Visibility: 10 miles , 16 km
Cloud details: Overcast 500 ft
2020/08/14 07:15 KEMV 140715Z AUTO 30005KT 10SM OVC005 23/23 A2995 RMK AO2 T02320228
 
KJGG - Williamsburg, Virginia, USA
Distance from station: ESE 53mi, 85km
Updated: Fri, 14-Aug-2020 3:15am EDT
Overcast
Overcast
 Wind from calm
Wind: Calm
Temperature: 75°F , 24°C
Dew Point: 75°F , 24°C
Humidity: 100%
Barometer: 29.91 inHg , 1012.9 hPa
Clouds: Overcast
Visibility: 7 miles , 11 km
Cloud details: Mostly cloudy 200 ft
Mostly cloudy 1300 ft
Overcast 3000 ft
2020/08/14 07:15 KJGG 140715Z AUTO 00000KT 7SM BKN002 BKN013 OVC030 24/24 A2991 RMK AO1
KAVC - South Hill/Meckl, Virginia, USA
Distance from station: SSW 56mi, 90km
Updated: Fri, 14-Aug-2020 3:15am EDT

 
2020/08/14 07:15 KAVC 140715Z AUTO RMK AO2 PNO TSNO
 
KGVE - Gordonsville, Virginia, USA
Distance from station: NNW 58mi, 93km
Updated: Fri, 14-Aug-2020 3:15am EDT
Overcast
Overcast
 Wind from calm
Wind: Calm
Temperature: 73°F , 23°C
Dew Point: 73°F , 23°C
Humidity: 100%
Barometer: 29.99 inHg , 1015.6 hPa
Clouds: Overcast
Visibility: 10 miles , 16 km
Cloud details: Overcast 600 ft
2020/08/14 07:15 KGVE 140715Z AUTO 00000KT 10SM OVC006 23/23 A2999 RMK AO1 T02320232
KEZF - Fredericksb/Shan, Virginia, USA
Distance from station: N 59mi, 95km
Updated: Fri, 14-Aug-2020 3:15am EDT
Mostly cloudy
Mostly cloudy
 Wind from N
Wind: N 3 mph , 6 km/h
Temperature: 75°F , 24°C
Dew Point: 75°F , 24°C
Humidity: 100%
Barometer: 29.96 inHg , 1014.6 hPa
Clouds: Mostly cloudy
Visibility: 10 miles , 16 km
Cloud details: Mostly cloudy 1300 ft
Mostly cloudy 2600 ft
Mostly cloudy 4200 ft
2020/08/14 07:15 KEZF 140715Z AUTO 35003KT 10SM BKN013 BKN026 BKN042 24/24 A2996 RMK AO2 T02400240